createdAt,value
2022-07-25T00:01:56.820Z,68.90
2022-07-25T00:04:26.562Z,70.45
2022-07-25T00:06:54.119Z,74.68
2022-07-25T00:09:21.696Z,113.63
2022-07-25T00:11:49.265Z,148.32
2022-07-25T00:14:16.819Z,140.85
2022-07-25T00:16:44.321Z,140.35
2022-07-25T00:19:11.873Z,152.57
2022-07-25T00:21:40.778Z,136.00
2022-07-25T00:24:09.344Z,111.50
2022-07-25T00:26:40.201Z,94.88
2022-07-25T00:29:08.217Z,62.85
2022-07-25T00:31:35.990Z,85.75
2022-07-25T00:34:04.546Z,78.03
2022-07-25T00:36:32.379Z,99.38
2022-07-25T00:39:01.512Z,71.28
2022-07-25T00:41:29.005Z,125.85
2022-07-25T00:43:56.563Z,64.70
2022-07-25T00:46:24.174Z,67.93
2022-07-25T00:48:51.761Z,25.60
2022-07-25T00:51:19.552Z,39.50
2022-07-25T00:53:47.602Z,22.38
2022-07-25T00:56:17.832Z,21.48
2022-07-25T00:58:45.988Z,20.30
2022-07-25T01:01:13.579Z,23.75
2022-07-25T01:03:41.167Z,24.95
2022-07-25T01:06:09.401Z,18.20
2022-07-25T01:08:37.010Z,28.92
2022-07-25T01:11:04.843Z,34.30
2022-07-25T01:13:34.834Z,19.63
2022-07-25T01:16:02.504Z,32.13
2022-07-25T01:18:30.118Z,19.35
2022-07-25T01:20:58.999Z,23.70
2022-07-25T01:23:26.509Z,21.33
2022-07-25T01:25:54.049Z,20.48
2022-07-25T01:28:21.647Z,23.08
2022-07-25T01:30:49.335Z,31.83
2022-07-25T01:33:17.761Z,37.78
2022-07-25T01:35:45.396Z,58.63
2022-07-25T01:38:15.016Z,37.35
2022-07-25T01:40:43.620Z,46.97
2022-07-25T01:43:12.038Z,49.70
2022-07-25T01:45:39.726Z,35.55
2022-07-25T01:48:08.045Z,48.85
2022-07-25T01:50:35.559Z,42.47
2022-07-25T01:53:03.084Z,53.75
2022-07-25T01:55:32.045Z,37.00
2022-07-25T01:58:00.201Z,41.45
2022-07-25T02:00:28.278Z,46.42
2022-07-25T02:03:09.816Z,31.85
2022-07-25T02:05:37.496Z,39.45
2022-07-25T02:08:05.494Z,23.33
2022-07-25T02:10:34.380Z,31.92
2022-07-25T02:13:02.833Z,32.58
2022-07-25T02:15:30.348Z,23.23
2022-07-25T02:17:57.932Z,25.17
2022-07-25T02:20:25.699Z,27.20
2022-07-25T02:22:53.219Z,24.90
2022-07-25T02:25:20.972Z,47.42
2022-07-25T02:27:49.820Z,32.78
2022-07-25T02:30:17.332Z,46.17
2022-07-25T02:32:44.872Z,35.47
2022-07-25T02:35:13.149Z,38.63
2022-07-25T02:37:41.122Z,31.33
2022-07-25T02:40:09.923Z,44.72
2022-07-25T02:42:37.654Z,30.35
2022-07-25T02:45:07.924Z,37.53
2022-07-25T02:47:35.453Z,41.85
2022-07-25T02:50:03.118Z,34.95
2022-07-25T02:52:30.639Z,49.95
2022-07-25T02:54:58.154Z,50.05
2022-07-25T02:57:25.676Z,48.85
2022-07-25T02:59:53.215Z,53.00
2022-07-25T03:02:22.075Z,48.78
2022-07-25T03:04:49.614Z,51.80
2022-07-25T03:07:17.120Z,48.85
2022-07-25T03:09:44.668Z,35.00
2022-07-25T03:12:12.169Z,32.58
2022-07-25T03:14:39.718Z,42.67
2022-07-25T03:17:07.342Z,37.85
2022-07-25T03:19:36.231Z,40.53
2022-07-25T03:22:03.778Z,47.05
2022-07-25T03:24:31.446Z,50.08
2022-07-25T03:26:59.048Z,49.72
2022-07-25T03:29:26.575Z,40.03
2022-07-25T03:31:54.225Z,27.75
2022-07-25T03:34:21.814Z,26.08
2022-07-25T03:36:50.665Z,36.55
2022-07-25T03:39:18.505Z,36.17
2022-07-25T03:41:46.406Z,49.47
2022-07-25T03:44:14.190Z,38.25
2022-07-25T03:46:41.692Z,28.33
2022-07-25T03:49:09.245Z,53.20
2022-07-25T03:51:36.860Z,56.00
2022-07-25T03:54:06.723Z,57.47
2022-07-25T03:56:43.624Z,53.45
2022-07-25T03:59:13.992Z,55.13
2022-07-25T04:01:42.520Z,54.00
2022-07-25T04:04:10.772Z,35.58
2022-07-25T04:06:39.103Z,34.13
2022-07-25T04:09:09.479Z,33.90
2022-07-25T04:11:38.208Z,52.13
2022-07-25T04:14:06.433Z,48.63
2022-07-25T04:16:34.929Z,45.95
2022-07-25T04:19:05.090Z,37.78
2022-07-25T04:21:33.951Z,43.22
2022-07-25T04:24:01.508Z,29.75
2022-07-25T04:26:30.386Z,63.42
2022-07-25T04:28:58.744Z,46.03
2022-07-25T04:31:26.624Z,38.35
2022-07-25T04:33:54.277Z,25.25
2022-07-25T04:36:22.368Z,21.67
2022-07-25T04:38:49.960Z,20.27
2022-07-25T04:41:17.540Z,10.05
2022-07-25T04:43:48.722Z,16.02
2022-07-25T04:46:19.862Z,9.77
2022-07-25T04:48:47.632Z,14.50
2022-07-25T04:51:15.734Z,10.80
2022-07-25T04:53:43.434Z,10.40
2022-07-25T04:56:10.957Z,10.85
2022-07-25T04:58:38.506Z,11.25
2022-07-25T05:01:08.260Z,14.63
2022-07-25T05:03:35.993Z,13.45
2022-07-25T05:06:03.559Z,16.02
2022-07-25T05:08:31.126Z,15.65
2022-07-25T05:10:58.680Z,14.88
2022-07-25T05:13:26.174Z,12.07
2022-07-25T05:15:53.703Z,12.07
2022-07-25T05:18:22.816Z,14.10
2022-07-25T05:20:50.315Z,14.07
2022-07-25T05:23:17.938Z,13.18
2022-07-25T05:25:45.654Z,15.57
2022-07-25T05:28:14.773Z,14.73
2022-07-25T05:30:42.302Z,13.45
2022-07-25T05:33:09.828Z,12.20
2022-07-25T05:35:39.229Z,11.35
2022-07-25T05:38:06.713Z,11.75
2022-07-25T05:40:34.313Z,12.95
2022-07-25T05:43:03.575Z,12.43
2022-07-25T05:45:31.596Z,13.20
2022-07-25T05:47:59.155Z,13.25
2022-07-25T05:50:26.719Z,13.63
2022-07-25T05:52:55.631Z,11.80
2022-07-25T05:55:23.121Z,12.85
2022-07-25T05:57:50.582Z,13.82
2022-07-25T06:00:18.953Z,12.25
2022-07-25T06:02:46.788Z,12.38
2022-07-25T06:05:14.545Z,13.88
2022-07-25T06:07:42.232Z,11.60
2022-07-25T06:10:11.298Z,12.38
2022-07-25T06:12:38.774Z,13.82
2022-07-25T06:15:12.500Z,12.82
2022-07-25T06:17:49.692Z,11.43
2022-07-25T06:20:17.189Z,11.80
2022-07-25T06:22:44.667Z,13.90
2022-07-25T06:25:13.661Z,18.80
2022-07-25T06:27:41.454Z,19.25
2022-07-25T06:30:19.257Z,24.98
2022-07-25T06:32:47.865Z,21.25
2022-07-25T06:35:15.549Z,16.25
2022-07-25T06:37:43.039Z,17.80
2022-07-25T06:40:11.080Z,20.05
2022-07-25T06:42:41.049Z,17.92
2022-07-25T06:45:10.723Z,17.88
2022-07-25T06:47:39.646Z,19.83
2022-07-25T06:50:08.671Z,18.60
2022-07-25T06:52:39.225Z,18.17
2022-07-25T06:55:08.028Z,18.27
2022-07-25T06:57:35.783Z,20.42
2022-07-25T07:00:09.030Z,19.40
2022-07-25T07:02:37.053Z,19.63
2022-07-25T07:05:04.911Z,20.45
2022-07-25T07:07:32.399Z,19.80
2022-07-25T07:09:59.876Z,20.80
2022-07-25T07:12:27.341Z,19.48
2022-07-25T07:14:54.830Z,21.38
2022-07-25T07:17:23.625Z,17.48
2022-07-25T07:19:51.088Z,19.42
2022-07-25T07:22:19.065Z,23.98
2022-07-25T07:24:48.260Z,22.67
2022-07-25T07:27:15.928Z,24.67
2022-07-25T07:29:46.784Z,21.73
2022-07-25T07:32:14.593Z,20.52
2022-07-25T07:34:43.514Z,15.88
2022-07-25T07:37:11.080Z,17.55
2022-07-25T07:39:38.536Z,17.88
2022-07-25T07:42:06.233Z,22.42
2022-07-25T07:44:33.709Z,26.70
2022-07-25T07:47:02.652Z,20.85
2022-07-25T07:49:30.525Z,22.05
2022-07-25T07:52:06.145Z,19.13
2022-07-25T07:54:50.921Z,18.83
2022-07-25T07:57:18.465Z,20.42
2022-07-25T07:59:45.938Z,15.20
2022-07-25T08:02:14.162Z,11.57
2022-07-25T08:04:41.727Z,12.82
2022-07-25T08:07:10.510Z,16.23
2022-07-25T08:09:37.986Z,13.25
2022-07-25T08:12:06.486Z,16.58
2022-07-25T08:14:34.006Z,17.00
2022-07-25T08:17:01.468Z,15.98
2022-07-25T08:19:28.956Z,13.98
2022-07-25T08:21:56.411Z,13.32
2022-07-25T08:24:25.334Z,13.38
2022-07-25T08:26:52.816Z,12.95
2022-07-25T08:29:23.887Z,11.88
2022-07-25T08:31:55.222Z,14.45
2022-07-25T08:34:22.749Z,13.18
2022-07-25T08:36:50.364Z,15.45
2022-07-25T08:39:17.826Z,14.43
2022-07-25T08:41:47.055Z,14.85
2022-07-25T08:44:16.063Z,14.50
2022-07-25T08:46:44.253Z,16.95
2022-07-25T08:49:12.629Z,16.17
2022-07-25T08:51:40.767Z,15.27
2022-07-25T08:54:09.075Z,13.35
2022-07-25T08:56:36.979Z,16.60
2022-07-25T08:59:05.776Z,14.68
2022-07-25T09:01:35.093Z,13.05
2022-07-25T09:04:04.714Z,14.25
2022-07-25T09:06:32.533Z,15.45
2022-07-25T09:09:01.263Z,13.75
2022-07-25T09:11:34.182Z,13.55
2022-07-25T09:14:04.837Z,15.63
2022-07-25T09:16:36.237Z,17.30
2022-07-25T09:19:10.548Z,18.13
2022-07-25T09:21:39.757Z,16.48
2022-07-25T09:24:16.760Z,12.50
2022-07-25T09:26:45.676Z,14.50
2022-07-25T09:29:18.333Z,14.43
2022-07-25T09:31:47.349Z,15.70
2022-07-25T09:34:20.865Z,16.27
2022-07-25T09:36:54.524Z,16.38
2022-07-25T09:39:22.091Z,12.93
2022-07-25T09:41:50.942Z,16.52
2022-07-25T09:44:19.305Z,15.75
2022-07-25T09:46:48.254Z,14.77
2022-07-25T09:49:15.976Z,17.20
2022-07-25T09:51:45.335Z,16.33
2022-07-25T09:54:12.847Z,16.00
2022-07-25T09:56:40.427Z,14.23
2022-07-25T09:59:08.538Z,13.82
2022-07-25T10:01:41.195Z,16.95
2022-07-25T10:04:16.959Z,15.63
2022-07-25T10:06:55.618Z,13.15
2022-07-25T10:09:23.639Z,12.23
2022-07-25T10:12:07.712Z,15.05
2022-07-25T10:14:35.652Z,14.38
2022-07-25T10:17:03.489Z,14.30
2022-07-25T10:19:52.999Z,18.33
2022-07-25T10:22:39.700Z,16.88
2022-07-25T10:25:14.162Z,13.52
2022-07-25T10:27:44.596Z,15.98
2022-07-25T10:30:21.089Z,15.23
2022-07-25T10:32:52.529Z,14.60
2022-07-25T10:35:21.465Z,13.20
2022-07-25T10:37:51.982Z,10.20
2022-07-25T10:40:28.032Z,10.45
2022-07-25T10:43:02.730Z,12.38
2022-07-25T10:45:39.745Z,12.18
2022-07-25T10:48:08.995Z,12.70
2022-07-25T10:50:55.426Z,13.27
2022-07-25T10:53:35.906Z,15.18
2022-07-25T10:56:11.608Z,15.65
2022-07-25T10:58:43.905Z,13.68
2022-07-25T11:01:11.858Z,13.45
2022-07-25T11:03:40.029Z,12.88
2022-07-25T11:06:09.045Z,14.05
2022-07-25T11:08:36.735Z,15.40
2022-07-25T11:11:04.463Z,15.52
2022-07-25T11:13:38.123Z,13.63
2022-07-25T11:16:06.579Z,17.15
2022-07-25T11:18:36.453Z,13.00
2022-07-25T11:21:06.839Z,13.55
2022-07-25T11:23:36.622Z,13.15
2022-07-25T11:26:09.668Z,13.07
2022-07-25T11:28:45.921Z,12.60
2022-07-25T11:31:14.488Z,13.32
2022-07-25T11:33:44.571Z,12.85
2022-07-25T11:36:12.861Z,16.80
2022-07-25T11:38:42.570Z,14.52
2022-07-25T11:41:10.106Z,14.30
2022-07-25T11:43:37.575Z,16.75
2022-07-25T11:46:07.579Z,16.23
2022-07-25T11:48:38.796Z,15.43
2022-07-25T11:51:16.195Z,16.52
2022-07-25T11:53:49.549Z,21.40
2022-07-25T11:56:41.457Z,15.05
2022-07-25T11:59:07.743Z,13.93
2022-07-25T12:01:37.213Z,11.65
2022-07-25T12:04:12.873Z,17.67
2022-07-25T12:06:40.867Z,12.50
2022-07-25T12:09:18.839Z,12.82
2022-07-25T12:11:48.964Z,17.80
2022-07-25T12:14:17.179Z,15.25
2022-07-25T12:16:44.793Z,14.02
2022-07-25T12:19:20.372Z,13.10
2022-07-25T12:21:48.006Z,12.90
2022-07-25T12:24:16.820Z,17.65
2022-07-25T12:26:44.327Z,13.05
2022-07-25T12:29:11.783Z,14.27
2022-07-25T12:31:39.246Z,14.90
2022-07-25T12:34:06.728Z,13.13
2022-07-25T12:36:35.575Z,12.93
2022-07-25T12:39:03.157Z,14.35
2022-07-25T12:41:32.072Z,17.52
2022-07-25T12:44:00.907Z,15.38
2022-07-25T12:46:28.465Z,15.50
2022-07-25T12:48:56.064Z,17.63
2022-07-25T12:51:23.515Z,15.40
2022-07-25T12:53:51.049Z,15.68
2022-07-25T12:56:18.510Z,15.43
2022-07-25T12:58:47.350Z,15.48
2022-07-25T13:01:15.038Z,13.65
2022-07-25T13:03:42.572Z,13.63
2022-07-25T13:06:10.065Z,13.48
2022-07-25T13:08:37.990Z,13.60
2022-07-25T13:11:05.508Z,14.18
2022-07-25T13:13:33.010Z,13.75
2022-07-25T13:16:01.949Z,17.13
2022-07-25T13:18:30.240Z,17.38
2022-07-25T13:20:57.765Z,17.63
2022-07-25T13:23:25.226Z,16.95
2022-07-25T13:25:53.413Z,17.15
2022-07-25T13:28:21.033Z,17.17
2022-07-25T13:30:48.636Z,16.42
2022-07-25T13:33:17.494Z,16.23
2022-07-25T13:35:44.992Z,14.68
2022-07-25T13:38:13.072Z,14.73
2022-07-25T13:40:42.013Z,15.38
2022-07-25T13:43:09.767Z,14.27
2022-07-25T13:45:37.873Z,18.50
2022-07-25T13:48:28.550Z,14.40
2022-07-25T13:50:54.960Z,13.13
2022-07-25T13:53:25.557Z,12.02
2022-07-25T13:55:58.012Z,13.85
2022-07-25T13:58:25.547Z,12.93
2022-07-25T14:00:53.310Z,15.30
2022-07-25T14:03:20.978Z,12.65
2022-07-25T14:05:48.756Z,12.18
2022-07-25T14:08:17.719Z,15.50
2022-07-25T14:10:45.263Z,13.43
2022-07-25T14:13:13.065Z,11.60
2022-07-25T14:15:40.606Z,13.70
2022-07-25T14:18:09.521Z,13.43
2022-07-25T14:20:37.152Z,17.08
2022-07-25T14:23:04.715Z,11.95
2022-07-25T14:25:33.607Z,14.30
2022-07-25T14:28:01.506Z,17.30
2022-07-25T14:30:29.120Z,17.20
2022-07-25T14:32:56.645Z,13.88
2022-07-25T14:35:28.765Z,12.05
2022-07-25T14:37:59.531Z,11.68
2022-07-25T14:40:27.354Z,12.93
2022-07-25T14:42:56.207Z,12.40
2022-07-25T14:45:23.998Z,13.20
2022-07-25T14:47:51.526Z,11.93
2022-07-25T14:50:19.136Z,13.55
2022-07-25T14:52:46.664Z,13.38
2022-07-25T14:55:14.238Z,15.85
2022-07-25T14:57:41.820Z,12.10
2022-07-25T15:00:12.365Z,15.80
2022-07-25T15:02:40.421Z,14.13
2022-07-25T15:05:08.640Z,11.35
2022-07-25T15:07:37.864Z,18.13
2022-07-25T15:10:06.415Z,15.23
2022-07-25T15:12:33.944Z,14.95
2022-07-25T15:15:01.445Z,20.48
2022-07-25T15:17:30.353Z,18.08
2022-07-25T15:19:57.863Z,11.63
2022-07-25T15:22:25.364Z,17.52
2022-07-25T15:27:40.387Z,18.92
2022-07-25T15:30:09.054Z,19.10
2022-07-25T15:32:39.034Z,15.68
2022-07-25T15:35:07.568Z,17.42
2022-07-25T15:37:35.124Z,18.02
2022-07-25T15:40:04.298Z,14.45
2022-07-25T15:42:32.835Z,14.40
2022-07-25T15:45:31.006Z,16.88
2022-07-25T15:47:51.291Z,12.77
2022-07-25T15:50:18.884Z,20.80
2022-07-25T15:52:46.429Z,25.23
2022-07-25T15:55:14.049Z,13.23
2022-07-25T15:57:41.816Z,20.83
2022-07-25T16:00:14.942Z,19.43
2022-07-25T16:02:42.524Z,12.77
2022-07-25T16:05:11.692Z,17.38
2022-07-25T16:07:39.439Z,19.52
2022-07-25T16:10:07.630Z,20.20
2022-07-25T16:12:35.216Z,21.02
2022-07-25T16:15:02.787Z,21.52
2022-07-25T16:17:31.265Z,19.73
2022-07-25T16:19:59.179Z,17.85
2022-07-25T16:22:28.040Z,11.13
2022-07-25T16:24:55.560Z,18.70
2022-07-25T16:27:23.087Z,20.38
2022-07-25T16:29:50.937Z,16.42
2022-07-25T16:32:18.764Z,13.38
2022-07-25T16:34:47.199Z,17.33
2022-07-25T16:37:15.096Z,23.63
2022-07-25T16:39:43.936Z,14.68
2022-07-25T16:42:11.425Z,20.10
2022-07-25T16:44:38.906Z,19.27
2022-07-25T16:47:07.772Z,17.33
2022-07-25T16:49:35.269Z,13.93
2022-07-25T16:52:02.724Z,12.27
2022-07-25T16:54:30.323Z,14.13
2022-07-25T16:56:59.860Z,15.80
2022-07-25T16:59:27.647Z,12.43
2022-07-25T17:01:55.199Z,12.20
2022-07-25T17:04:22.811Z,9.23
2022-07-25T17:06:50.375Z,9.73
2022-07-25T17:09:18.008Z,12.23
2022-07-25T17:11:45.725Z,11.13
2022-07-25T17:14:14.524Z,11.85
2022-07-25T17:16:42.796Z,20.75
2022-07-25T17:19:10.835Z,20.42
2022-07-25T17:21:38.481Z,17.63
2022-07-25T17:24:06.531Z,18.42
2022-07-25T17:26:34.041Z,22.45
2022-07-25T17:29:01.913Z,20.90
2022-07-25T17:31:30.772Z,11.48
2022-07-25T17:33:58.340Z,32.83
2022-07-25T17:36:25.894Z,18.50
2022-07-25T17:38:53.444Z,16.20
2022-07-25T17:41:20.906Z,19.08
2022-07-25T17:43:48.709Z,20.05
2022-07-25T17:46:16.720Z,31.48
2022-07-25T17:48:46.386Z,29.92
2022-07-25T17:51:13.903Z,43.78
2022-07-25T17:53:41.364Z,75.13
2022-07-25T17:56:09.538Z,62.60
2022-07-25T17:58:37.828Z,90.20
2022-07-25T18:01:10.096Z,65.97
2022-07-25T18:03:38.462Z,61.58
2022-07-25T18:06:07.347Z,56.75
2022-07-25T18:08:35.697Z,64.47
2022-07-25T18:11:03.526Z,61.20
2022-07-25T18:13:31.123Z,59.15
2022-07-25T18:15:58.787Z,60.92
2022-07-25T18:18:26.709Z,66.50
2022-07-25T18:20:54.232Z,69.85
2022-07-25T18:23:24.157Z,65.05
2022-07-25T18:25:52.970Z,80.60
2022-07-25T18:28:21.523Z,86.93
2022-07-25T18:30:49.158Z,67.03
2022-07-25T18:33:17.019Z,42.15
2022-07-25T18:35:44.804Z,15.48
2022-07-25T18:38:12.388Z,15.38
2022-07-25T18:40:41.262Z,15.25
2022-07-25T18:43:09.183Z,15.48
2022-07-25T18:45:38.345Z,18.77
2022-07-25T18:48:07.574Z,17.42
2022-07-25T18:50:35.293Z,20.13
2022-07-25T18:53:02.820Z,25.02
2022-07-25T18:55:30.336Z,15.40
2022-07-25T18:57:59.991Z,17.27
2022-07-25T19:00:27.941Z,19.83
2022-07-25T19:02:55.427Z,15.70
2022-07-25T19:05:23.014Z,14.77
2022-07-25T19:07:50.665Z,13.25
2022-07-25T19:10:18.264Z,12.88
2022-07-25T19:12:45.758Z,15.05
2022-07-25T19:15:14.586Z,18.23
2022-07-25T19:17:42.167Z,15.55
2022-07-25T19:20:11.342Z,25.88
2022-07-25T19:22:38.883Z,36.72
2022-07-25T19:25:08.561Z,43.67
2022-07-25T19:27:36.464Z,30.23
2022-07-25T19:30:06.905Z,30.33
2022-07-25T19:32:36.384Z,48.30
2022-07-25T19:35:04.757Z,59.30
2022-07-25T19:37:33.472Z,55.45
2022-07-25T19:40:01.367Z,89.47
2022-07-25T19:42:29.098Z,88.45
2022-07-25T19:44:56.672Z,103.85
2022-07-25T19:47:24.237Z,82.18
2022-07-25T19:49:54.346Z,74.15
2022-07-25T19:52:21.903Z,79.57
2022-07-25T19:54:49.401Z,72.97
2022-07-25T19:57:16.993Z,71.47
2022-07-25T19:59:44.508Z,59.72
2022-07-25T20:02:13.077Z,76.30
2022-07-25T20:04:40.587Z,104.38
2022-07-25T20:07:09.376Z,95.90
2022-07-25T20:09:36.853Z,107.38
2022-07-25T20:12:04.777Z,92.45
2022-07-25T20:14:32.296Z,104.03
2022-07-25T20:16:59.820Z,112.05
2022-07-25T20:19:27.560Z,115.93
2022-07-25T20:21:57.742Z,96.03
2022-07-25T20:24:26.748Z,100.93
2022-07-25T20:26:54.248Z,92.63
2022-07-25T20:29:22.312Z,96.70
2022-07-25T20:31:52.550Z,38.90
2022-07-25T20:34:20.971Z,20.85
2022-07-25T20:36:48.518Z,33.45
2022-07-25T20:39:16.020Z,32.70
2022-07-25T20:41:44.917Z,33.72
2022-07-25T20:44:12.947Z,32.28
2022-07-25T20:46:40.544Z,33.40
2022-07-25T20:49:09.210Z,23.85
2022-07-25T20:51:37.357Z,24.92
2022-07-25T20:54:05.214Z,38.35
2022-07-25T20:56:32.885Z,32.92
2022-07-25T20:59:01.739Z,33.05
2022-07-25T21:01:29.390Z,38.83
2022-07-25T21:03:56.914Z,34.88
2022-07-25T21:06:26.975Z,25.98
2022-07-25T21:08:54.892Z,23.98
2022-07-25T21:11:22.586Z,28.17
2022-07-25T21:13:50.114Z,20.42
2022-07-25T21:16:19.813Z,30.65
2022-07-25T21:18:47.328Z,31.20
2022-07-25T21:21:14.844Z,28.98
2022-07-25T21:23:42.350Z,38.97
2022-07-25T21:26:11.030Z,29.45
2022-07-25T21:28:38.616Z,92.07
2022-07-25T21:31:06.090Z,25.27
2022-07-25T21:33:34.909Z,98.57
2022-07-25T21:36:02.388Z,44.10
2022-07-25T21:38:33.435Z,86.80
2022-07-25T21:41:02.422Z,50.80
2022-07-25T21:43:29.915Z,26.70
2022-07-25T21:45:57.418Z,22.90
2022-07-25T21:48:39.128Z,49.97
2022-07-25T21:51:08.264Z,29.17
2022-07-25T21:53:35.889Z,24.75
2022-07-25T21:56:03.359Z,23.75
2022-07-25T21:58:31.014Z,25.85
2022-07-25T22:00:58.568Z,22.88
2022-07-25T22:03:26.180Z,21.98
2022-07-25T22:05:53.578Z,21.23
2022-07-25T22:08:22.394Z,42.05
2022-07-25T22:10:49.876Z,22.73
2022-07-25T22:13:17.440Z,27.73
2022-07-25T22:15:45.129Z,22.73
2022-07-25T22:18:12.591Z,26.77
2022-07-25T22:20:40.456Z,22.42
2022-07-25T22:23:08.380Z,53.90
2022-07-25T22:25:37.187Z,35.30
2022-07-25T22:28:04.899Z,66.80
2022-07-25T22:30:33.637Z,106.10
2022-07-25T22:33:01.192Z,102.43
2022-07-25T22:35:28.863Z,96.32
2022-07-25T22:37:56.394Z,54.45
2022-07-25T22:40:23.959Z,45.63
2022-07-25T22:42:52.782Z,61.28
2022-07-25T22:45:23.574Z,62.65
2022-07-25T22:47:51.353Z,94.82
2022-07-25T22:50:19.151Z,45.22
2022-07-25T22:52:46.669Z,63.38
2022-07-25T22:55:14.212Z,56.95
2022-07-25T22:57:41.710Z,47.33
2022-07-25T23:00:12.506Z,57.60
2022-07-25T23:02:40.363Z,81.53
2022-07-25T23:05:08.511Z,80.45
2022-07-25T23:07:36.176Z,56.95
2022-07-25T23:10:04.285Z,72.65
2022-07-25T23:12:31.967Z,65.75
2022-07-25T23:15:00.238Z,65.18
2022-07-25T23:17:29.182Z,55.10
2022-07-25T23:19:57.137Z,71.43
2022-07-25T23:22:27.778Z,55.45
2022-07-25T23:24:56.093Z,50.97
2022-07-25T23:27:25.416Z,59.15
2022-07-25T23:29:53.079Z,56.47
2022-07-25T23:32:20.816Z,50.78
2022-07-25T23:34:49.750Z,47.25
2022-07-25T23:37:17.234Z,64.00
2022-07-25T23:39:44.729Z,44.20
2022-07-25T23:42:12.249Z,70.45
2022-07-25T23:44:39.715Z,61.45
2022-07-25T23:47:10.011Z,62.47
2022-07-25T23:49:37.844Z,55.45
2022-07-25T23:52:06.873Z,63.65
2022-07-25T23:54:34.848Z,43.05
2022-07-25T23:57:02.480Z,34.50
2022-07-25T23:59:29.980Z,44.17
